sensor_id;sensor_type;location;lat;lon;timestamp;P1;durP1;ratioP1;P2;durP2;ratioP2
15443;SDS011;7822;48.146;11.576;2023-02-28T00:01:07;1.83;;;1.60;;
15443;SDS011;7822;48.146;11.576;2023-02-28T00:03:34;1.70;;;1.60;;
15443;SDS011;7822;48.146;11.576;2023-02-28T00:06:02;1.80;;;1.70;;
15443;SDS011;7822;48.146;11.576;2023-02-28T00:08:31;1.37;;;1.27;;
15443;SDS011;7822;48.146;11.576;2023-02-28T00:11:00;1.60;;;1.50;;
15443;SDS011;7822;48.146;11.576;2023-02-28T00:13:29;1.50;;;1.40;;
15443;SDS011;7822;48.146;11.576;2023-02-28T00:16:01;1.33;;;1.23;;
15443;SDS011;7822;48.146;11.576;2023-02-28T00:18:30;1.80;;;1.60;;
15443;SDS011;7822;48.146;11.576;2023-02-28T00:20:58;1.67;;;1.57;;
15443;SDS011;7822;48.146;11.576;2023-02-28T00:23:26;1.50;;;1.40;;
15443;SDS011;7822;48.146;11.576;2023-02-28T00:25:54;1.70;;;1.60;;
15443;SDS011;7822;48.146;11.576;2023-02-28T00:28:22;1.60;;;1.50;;
15443;SDS011;7822;48.146;11.576;2023-02-28T00:30:51;1.53;;;1.43;;
15443;SDS011;7822;48.146;11.576;2023-02-28T00:33:18;1.80;;;1.50;;
15443;SDS011;7822;48.146;11.576;2023-02-28T00:35:47;1.60;;;1.50;;
15443;SDS011;7822;48.146;11.576;2023-02-28T00:38:15;1.77;;;1.47;;
15443;SDS011;7822;48.146;11.576;2023-02-28T00:40:43;1.70;;;1.60;;
15443;SDS011;7822;48.146;11.576;2023-02-28T00:43:10;1.70;;;1.60;;
15443;SDS011;7822;48.146;11.576;2023-02-28T00:45:38;1.37;;;1.20;;
15443;SDS011;7822;48.146;11.576;2023-02-28T00:48:06;1.60;;;1.50;;
15443;SDS011;7822;48.146;11.576;2023-02-28T00:50:33;1.50;;;1.40;;
15443;SDS011;7822;48.146;11.576;2023-02-28T00:53:02;1.57;;;1.47;;
15443;SDS011;7822;48.146;11.576;2023-02-28T00:55:30;1.50;;;1.40;;
15443;SDS011;7822;48.146;11.576;2023-02-28T00:57:58;1.50;;;1.40;;
15443;SDS011;7822;48.146;11.576;2023-02-28T01:00:25;1.50;;;1.40;;
15443;SDS011;7822;48.146;11.576;2023-02-28T01:02:53;1.20;;;1.10;;
15443;SDS011;7822;48.146;11.576;2023-02-28T01:05:20;1.87;;;1.50;;
15443;SDS011;7822;48.146;11.576;2023-02-28T01:07:48;1.80;;;1.70;;
15443;SDS011;7822;48.146;11.576;2023-02-28T01:10:17;1.80;;;1.63;;
15443;SDS011;7822;48.146;11.576;2023-02-28T01:12:46;2.30;;;1.60;;
15443;SDS011;7822;48.146;11.576;2023-02-28T01:15:14;1.53;;;1.43;;
15443;SDS011;7822;48.146;11.576;2023-02-28T01:17:42;1.47;;;1.37;;
15443;SDS011;7822;48.146;11.576;2023-02-28T01:20:10;1.53;;;1.43;;
15443;SDS011;7822;48.146;11.576;2023-02-28T01:22:38;1.43;;;1.33;;
15443;SDS011;7822;48.146;11.576;2023-02-28T01:25:06;1.30;;;1.20;;
15443;SDS011;7822;48.146;11.576;2023-02-28T01:27:36;1.40;;;1.30;;
15443;SDS011;7822;48.146;11.576;2023-02-28T01:30:06;1.47;;;1.37;;
15443;SDS011;7822;48.146;11.576;2023-02-28T01:32:35;1.60;;;1.37;;
15443;SDS011;7822;48.146;11.576;2023-02-28T01:35:03;1.33;;;1.23;;
15443;SDS011;7822;48.146;11.576;2023-02-28T01:37:31;2.07;;;1.63;;
15443;SDS011;7822;48.146;11.576;2023-02-28T01:39:58;2.00;;;1.40;;
15443;SDS011;7822;48.146;11.576;2023-02-28T01:42:26;1.30;;;1.20;;
15443;SDS011;7822;48.146;11.576;2023-02-28T01:44:57;1.30;;;1.20;;
15443;SDS011;7822;48.146;11.576;2023-02-28T01:47:29;1.47;;;1.37;;
15443;SDS011;7822;48.146;11.576;2023-02-28T01:50:01;1.30;;;1.20;;
15443;SDS011;7822;48.146;11.576;2023-02-28T01:52:31;1.47;;;1.37;;
15443;SDS011;7822;48.146;11.576;2023-02-28T01:55:00;1.40;;;1.30;;
15443;SDS011;7822;48.146;11.576;2023-02-28T01:57:32;1.77;;;1.67;;
15443;SDS011;7822;48.146;11.576;2023-02-28T02:00:07;1.40;;;1.30;;
15443;SDS011;7822;48.146;11.576;2023-02-28T02:02:36;1.40;;;1.30;;
15443;SDS011;7822;48.146;11.576;2023-02-28T02:05:06;1.73;;;1.40;;
15443;SDS011;7822;48.146;11.576;2023-02-28T02:07:36;1.80;;;1.70;;
15443;SDS011;7822;48.146;11.576;2023-02-28T02:10:10;1.23;;;1.13;;
15443;SDS011;7822;48.146;11.576;2023-02-28T02:12:56;1.30;;;1.20;;
15443;SDS011;7822;48.146;11.576;2023-02-28T02:15:39;1.60;;;1.43;;
15443;SDS011;7822;48.146;11.576;2023-02-28T02:18:14;1.30;;;1.20;;
15443;SDS011;7822;48.146;11.576;2023-02-28T02:21:05;1.20;;;1.20;;
15443;SDS011;7822;48.146;11.576;2023-02-28T02:23:51;1.60;;;1.50;;
15443;SDS011;7822;48.146;11.576;2023-02-28T02:26:36;1.37;;;1.27;;
15443;SDS011;7822;48.146;11.576;2023-02-28T02:29:31;1.30;;;1.20;;
15443;SDS011;7822;48.146;11.576;2023-02-28T02:32:16;1.43;;;1.33;;
15443;SDS011;7822;48.146;11.576;2023-02-28T02:35:05;1.63;;;1.53;;
15443;SDS011;7822;48.146;11.576;2023-02-28T02:37:40;1.40;;;1.30;;
15443;SDS011;7822;48.146;11.576;2023-02-28T02:40:15;1.53;;;1.43;;
15443;SDS011;7822;48.146;11.576;2023-02-28T02:42:48;1.33;;;1.20;;
15443;SDS011;7822;48.146;11.576;2023-02-28T02:45:23;1.37;;;1.27;;
15443;SDS011;7822;48.146;11.576;2023-02-28T02:47:56;1.30;;;1.20;;
15443;SDS011;7822;48.146;11.576;2023-02-28T02:50:29;1.93;;;1.70;;
15443;SDS011;7822;48.146;11.576;2023-02-28T02:53:01;1.43;;;1.33;;
15443;SDS011;7822;48.146;11.576;2023-02-28T02:55:31;1.40;;;1.30;;
15443;SDS011;7822;48.146;11.576;2023-02-28T02:58:02;1.40;;;1.30;;
15443;SDS011;7822;48.146;11.576;2023-02-28T03:00:33;1.20;;;1.10;;
15443;SDS011;7822;48.146;11.576;2023-02-28T03:03:03;1.50;;;1.40;;
15443;SDS011;7822;48.146;11.576;2023-02-28T03:05:35;1.40;;;1.30;;
15443;SDS011;7822;48.146;11.576;2023-02-28T03:08:09;1.50;;;1.40;;
15443;SDS011;7822;48.146;11.576;2023-02-28T03:10:38;1.67;;;1.57;;
15443;SDS011;7822;48.146;11.576;2023-02-28T03:13:17;1.30;;;1.20;;
15443;SDS011;7822;48.146;11.576;2023-02-28T03:16:12;1.50;;;1.40;;
15443;SDS011;7822;48.146;11.576;2023-02-28T03:18:59;1.47;;;1.30;;
15443;SDS011;7822;48.146;11.576;2023-02-28T03:21:45;1.07;;;1.07;;
15443;SDS011;7822;48.146;11.576;2023-02-28T03:24:24;1.30;;;1.20;;
15443;SDS011;7822;48.146;11.576;2023-02-28T03:27:02;1.50;;;1.40;;
15443;SDS011;7822;48.146;11.576;2023-02-28T03:29:35;1.70;;;1.53;;
15443;SDS011;7822;48.146;11.576;2023-02-28T03:32:08;1.80;;;1.50;;
15443;SDS011;7822;48.146;11.576;2023-02-28T03:34:48;1.30;;;1.17;;
15443;SDS011;7822;48.146;11.576;2023-02-28T03:37:23;1.33;;;1.23;;
15443;SDS011;7822;48.146;11.576;2023-02-28T03:39:56;1.30;;;1.20;;
15443;SDS011;7822;48.146;11.576;2023-02-28T03:42:27;1.60;;;1.30;;
15443;SDS011;7822;48.146;11.576;2023-02-28T03:44:59;1.83;;;1.20;;
15443;SDS011;7822;48.146;11.576;2023-02-28T03:47:31;1.30;;;1.20;;
15443;SDS011;7822;48.146;11.576;2023-02-28T03:50:05;1.60;;;1.50;;
15443;SDS011;7822;48.146;11.576;2023-02-28T03:52:40;1.33;;;1.23;;
15443;SDS011;7822;48.146;11.576;2023-02-28T03:55:13;1.23;;;1.20;;
15443;SDS011;7822;48.146;11.576;2023-02-28T03:57:43;1.40;;;1.30;;
15443;SDS011;7822;48.146;11.576;2023-02-28T04:00:26;1.17;;;1.10;;
15443;SDS011;7822;48.146;11.576;2023-02-28T04:02:59;1.43;;;1.33;;
15443;SDS011;7822;48.146;11.576;2023-02-28T04:05:26;1.50;;;1.40;;
15443;SDS011;7822;48.146;11.576;2023-02-28T04:08:04;1.33;;;1.20;;
15443;SDS011;7822;48.146;11.576;2023-02-28T04:10:32;1.70;;;1.60;;
15443;SDS011;7822;48.146;11.576;2023-02-28T04:13:00;1.50;;;1.40;;
15443;SDS011;7822;48.146;11.576;2023-02-28T04:15:28;1.23;;;1.20;;
15443;SDS011;7822;48.146;11.576;2023-02-28T04:17:55;1.23;;;1.03;;
15443;SDS011;7822;48.146;11.576;2023-02-28T04:20:23;1.30;;;1.20;;
15443;SDS011;7822;48.146;11.576;2023-02-28T04:22:51;1.40;;;1.20;;
15443;SDS011;7822;48.146;11.576;2023-02-28T04:25:20;1.90;;;1.40;;
15443;SDS011;7822;48.146;11.576;2023-02-28T04:27:47;1.23;;;1.13;;
15443;SDS011;7822;48.146;11.576;2023-02-28T04:30:15;1.30;;;1.20;;
15443;SDS011;7822;48.146;11.576;2023-02-28T04:32:43;1.50;;;1.40;;
15443;SDS011;7822;48.146;11.576;2023-02-28T04:35:11;1.10;;;1.00;;
15443;SDS011;7822;48.146;11.576;2023-02-28T04:37:38;1.30;;;1.20;;
15443;SDS011;7822;48.146;11.576;2023-02-28T04:40:07;1.50;;;1.17;;
15443;SDS011;7822;48.146;11.576;2023-02-28T04:42:37;1.47;;;1.37;;
15443;SDS011;7822;48.146;11.576;2023-02-28T04:45:05;1.07;;;0.97;;
15443;SDS011;7822;48.146;11.576;2023-02-28T04:47:36;1.50;;;1.40;;
15443;SDS011;7822;48.146;11.576;2023-02-28T04:50:04;1.63;;;1.53;;
15443;SDS011;7822;48.146;11.576;2023-02-28T04:52:32;1.07;;;1.00;;
15443;SDS011;7822;48.146;11.576;2023-02-28T04:55:00;1.30;;;1.20;;
15443;SDS011;7822;48.146;11.576;2023-02-28T04:57:27;1.20;;;1.10;;
15443;SDS011;7822;48.146;11.576;2023-02-28T04:59:57;1.10;;;1.10;;
15443;SDS011;7822;48.146;11.576;2023-02-28T05:02:25;1.30;;;1.20;;
15443;SDS011;7822;48.146;11.576;2023-02-28T05:04:52;1.17;;;1.07;;
15443;SDS011;7822;48.146;11.576;2023-02-28T05:07:20;1.30;;;1.20;;
15443;SDS011;7822;48.146;11.576;2023-02-28T05:09:48;1.40;;;1.30;;
15443;SDS011;7822;48.146;11.576;2023-02-28T05:12:15;1.40;;;1.30;;
15443;SDS011;7822;48.146;11.576;2023-02-28T05:14:43;1.27;;;1.13;;
15443;SDS011;7822;48.146;11.576;2023-02-28T05:17:12;1.37;;;1.27;;
15443;SDS011;7822;48.146;11.576;2023-02-28T05:19:40;1.30;;;1.20;;
15443;SDS011;7822;48.146;11.576;2023-02-28T05:22:11;1.40;;;1.20;;
15443;SDS011;7822;48.146;11.576;2023-02-28T05:24:40;1.57;;;1.47;;
15443;SDS011;7822;48.146;11.576;2023-02-28T05:27:08;1.10;;;1.10;;
15443;SDS011;7822;48.146;11.576;2023-02-28T05:29:37;1.33;;;1.23;;
15443;SDS011;7822;48.146;11.576;2023-02-28T05:32:08;1.30;;;1.20;;
15443;SDS011;7822;48.146;11.576;2023-02-28T05:34:39;1.37;;;1.27;;
15443;SDS011;7822;48.146;11.576;2023-02-28T05:37:09;1.50;;;1.40;;
15443;SDS011;7822;48.146;11.576;2023-02-28T05:39:39;1.67;;;1.57;;
15443;SDS011;7822;48.146;11.576;2023-02-28T05:42:07;1.60;;;1.37;;
15443;SDS011;7822;48.146;11.576;2023-02-28T05:44:35;1.57;;;1.47;;
15443;SDS011;7822;48.146;11.576;2023-02-28T05:47:03;1.20;;;1.10;;
15443;SDS011;7822;48.146;11.576;2023-02-28T05:49:30;1.27;;;1.17;;
15443;SDS011;7822;48.146;11.576;2023-02-28T05:51:59;1.47;;;1.37;;
15443;SDS011;7822;48.146;11.576;2023-02-28T05:54:27;1.80;;;1.70;;
15443;SDS011;7822;48.146;11.576;2023-02-28T05:56:55;1.40;;;1.20;;
15443;SDS011;7822;48.146;11.576;2023-02-28T05:59:22;1.50;;;1.40;;
15443;SDS011;7822;48.146;11.576;2023-02-28T06:01:50;1.47;;;1.37;;
15443;SDS011;7822;48.146;11.576;2023-02-28T06:04:19;1.63;;;1.50;;
15443;SDS011;7822;48.146;11.576;2023-02-28T06:06:57;1.60;;;1.50;;
15443;SDS011;7822;48.146;11.576;2023-02-28T06:09:26;1.43;;;1.33;;
15443;SDS011;7822;48.146;11.576;2023-02-28T06:11:54;1.53;;;1.40;;
15443;SDS011;7822;48.146;11.576;2023-02-28T06:14:21;1.40;;;1.30;;
15443;SDS011;7822;48.146;11.576;2023-02-28T06:16:49;1.27;;;1.23;;
15443;SDS011;7822;48.146;11.576;2023-02-28T06:19:16;1.53;;;1.43;;
15443;SDS011;7822;48.146;11.576;2023-02-28T06:21:44;1.40;;;1.30;;
15443;SDS011;7822;48.146;11.576;2023-02-28T06:24:15;1.43;;;1.33;;
15443;SDS011;7822;48.146;11.576;2023-02-28T06:26:44;1.30;;;1.20;;
15443;SDS011;7822;48.146;11.576;2023-02-28T06:29:12;1.40;;;1.30;;
15443;SDS011;7822;48.146;11.576;2023-02-28T06:31:44;1.40;;;1.10;;
15443;SDS011;7822;48.146;11.576;2023-02-28T06:34:13;1.50;;;1.40;;
15443;SDS011;7822;48.146;11.576;2023-02-28T06:36:41;1.50;;;1.40;;
15443;SDS011;7822;48.146;11.576;2023-02-28T06:39:09;1.23;;;1.13;;
15443;SDS011;7822;48.146;11.576;2023-02-28T06:41:37;1.57;;;1.47;;
15443;SDS011;7822;48.146;11.576;2023-02-28T06:44:22;1.37;;;1.27;;
15443;SDS011;7822;48.146;11.576;2023-02-28T06:46:50;1.50;;;1.33;;
15443;SDS011;7822;48.146;11.576;2023-02-28T06:49:18;1.40;;;1.30;;
15443;SDS011;7822;48.146;11.576;2023-02-28T06:51:45;1.27;;;1.17;;
15443;SDS011;7822;48.146;11.576;2023-02-28T06:54:13;1.43;;;1.33;;
15443;SDS011;7822;48.146;11.576;2023-02-28T06:56:41;1.50;;;1.40;;
15443;SDS011;7822;48.146;11.576;2023-02-28T06:59:08;1.47;;;1.37;;
15443;SDS011;7822;48.146;11.576;2023-02-28T07:01:37;1.40;;;1.30;;
15443;SDS011;7822;48.146;11.576;2023-02-28T07:04:06;1.33;;;1.23;;
15443;SDS011;7822;48.146;11.576;2023-02-28T07:06:33;1.50;;;1.40;;
15443;SDS011;7822;48.146;11.576;2023-02-28T07:09:02;1.60;;;1.50;;
15443;SDS011;7822;48.146;11.576;2023-02-28T07:11:31;1.63;;;1.30;;
15443;SDS011;7822;48.146;11.576;2023-02-28T07:13:59;1.53;;;1.43;;
15443;SDS011;7822;48.146;11.576;2023-02-28T07:16:26;1.33;;;1.23;;
15443;SDS011;7822;48.146;11.576;2023-02-28T07:18:55;1.50;;;1.40;;
15443;SDS011;7822;48.146;11.576;2023-02-28T07:21:23;2.00;;;1.60;;
15443;SDS011;7822;48.146;11.576;2023-02-28T07:23:51;1.47;;;1.37;;
15443;SDS011;7822;48.146;11.576;2023-02-28T07:26:19;1.33;;;1.23;;
15443;SDS011;7822;48.146;11.576;2023-02-28T07:28:47;1.37;;;1.27;;
15443;SDS011;7822;48.146;11.576;2023-02-28T07:31:16;1.40;;;1.30;;
15443;SDS011;7822;48.146;11.576;2023-02-28T07:33:44;1.27;;;1.17;;
15443;SDS011;7822;48.146;11.576;2023-02-28T07:36:14;1.40;;;1.30;;
15443;SDS011;7822;48.146;11.576;2023-02-28T07:38:45;1.90;;;1.37;;
15443;SDS011;7822;48.146;11.576;2023-02-28T07:41:16;1.70;;;1.43;;
15443;SDS011;7822;48.146;11.576;2023-02-28T07:43:44;1.60;;;1.50;;
15443;SDS011;7822;48.146;11.576;2023-02-28T07:46:13;1.40;;;1.30;;
15443;SDS011;7822;48.146;11.576;2023-02-28T07:48:42;1.43;;;1.33;;
15443;SDS011;7822;48.146;11.576;2023-02-28T07:51:10;1.43;;;1.30;;
15443;SDS011;7822;48.146;11.576;2023-02-28T07:53:40;1.50;;;1.40;;
15443;SDS011;7822;48.146;11.576;2023-02-28T07:56:07;1.50;;;1.40;;
15443;SDS011;7822;48.146;11.576;2023-02-28T07:58:36;1.60;;;1.50;;
15443;SDS011;7822;48.146;11.576;2023-02-28T08:01:04;1.80;;;1.30;;
15443;SDS011;7822;48.146;11.576;2023-02-28T08:03:33;1.50;;;1.40;;
15443;SDS011;7822;48.146;11.576;2023-02-28T08:06:02;1.83;;;1.47;;
15443;SDS011;7822;48.146;11.576;2023-02-28T08:08:30;1.50;;;1.40;;
15443;SDS011;7822;48.146;11.576;2023-02-28T08:11:00;1.67;;;1.57;;
15443;SDS011;7822;48.146;11.576;2023-02-28T08:13:29;1.70;;;1.30;;
15443;SDS011;7822;48.146;11.576;2023-02-28T08:15:57;1.53;;;1.43;;
15443;SDS011;7822;48.146;11.576;2023-02-28T08:18:25;1.70;;;1.60;;
15443;SDS011;7822;48.146;11.576;2023-02-28T08:20:53;1.80;;;1.70;;
15443;SDS011;7822;48.146;11.576;2023-02-28T08:23:20;1.67;;;1.57;;
15443;SDS011;7822;48.146;11.576;2023-02-28T08:25:52;1.47;;;1.37;;
15443;SDS011;7822;48.146;11.576;2023-02-28T08:28:22;1.50;;;1.40;;
15443;SDS011;7822;48.146;11.576;2023-02-28T08:30:52;1.70;;;1.60;;
15443;SDS011;7822;48.146;11.576;2023-02-28T08:33:20;1.60;;;1.50;;
15443;SDS011;7822;48.146;11.576;2023-02-28T08:35:48;1.60;;;1.50;;
15443;SDS011;7822;48.146;11.576;2023-02-28T08:38:20;1.60;;;1.50;;
15443;SDS011;7822;48.146;11.576;2023-02-28T08:40:48;1.53;;;1.43;;
15443;SDS011;7822;48.146;11.576;2023-02-28T08:43:16;1.60;;;1.50;;
15443;SDS011;7822;48.146;11.576;2023-02-28T08:45:45;1.97;;;1.67;;
15443;SDS011;7822;48.146;11.576;2023-02-28T08:48:13;1.57;;;1.47;;
15443;SDS011;7822;48.146;11.576;2023-02-28T08:50:43;1.50;;;1.40;;
15443;SDS011;7822;48.146;11.576;2023-02-28T08:53:23;1.60;;;1.50;;
15443;SDS011;7822;48.146;11.576;2023-02-28T08:55:58;1.83;;;1.73;;
15443;SDS011;7822;48.146;11.576;2023-02-28T08:58:26;1.80;;;1.70;;
15443;SDS011;7822;48.146;11.576;2023-02-28T09:00:56;1.87;;;1.67;;
15443;SDS011;7822;48.146;11.576;2023-02-28T09:03:24;1.50;;;1.40;;
15443;SDS011;7822;48.146;11.576;2023-02-28T09:05:57;1.60;;;1.50;;
15443;SDS011;7822;48.146;11.576;2023-02-28T09:08:26;1.80;;;1.70;;
15443;SDS011;7822;48.146;11.576;2023-02-28T09:10:56;1.83;;;1.73;;
15443;SDS011;7822;48.146;11.576;2023-02-28T09:13:27;1.40;;;1.30;;
15443;SDS011;7822;48.146;11.576;2023-02-28T09:15:58;1.67;;;1.57;;
15443;SDS011;7822;48.146;11.576;2023-02-28T09:18:27;1.73;;;1.63;;
15443;SDS011;7822;48.146;11.576;2023-02-28T09:20:54;1.70;;;1.60;;
15443;SDS011;7822;48.146;11.576;2023-02-28T09:23:23;1.60;;;1.50;;
15443;SDS011;7822;48.146;11.576;2023-02-28T09:25:52;1.40;;;1.30;;
15443;SDS011;7822;48.146;11.576;2023-02-28T09:28:21;1.63;;;1.53;;
15443;SDS011;7822;48.146;11.576;2023-02-28T09:30:50;1.93;;;1.70;;
15443;SDS011;7822;48.146;11.576;2023-02-28T09:33:20;1.60;;;1.50;;
15443;SDS011;7822;48.146;11.576;2023-02-28T09:35:49;1.60;;;1.50;;
15443;SDS011;7822;48.146;11.576;2023-02-28T09:38:17;1.60;;;1.50;;
15443;SDS011;7822;48.146;11.576;2023-02-28T09:40:47;1.80;;;1.70;;
15443;SDS011;7822;48.146;11.576;2023-02-28T09:43:18;1.53;;;1.40;;
15443;SDS011;7822;48.146;11.576;2023-02-28T09:45:50;1.83;;;1.73;;
15443;SDS011;7822;48.146;11.576;2023-02-28T09:48:27;1.60;;;1.50;;
15443;SDS011;7822;48.146;11.576;2023-02-28T09:50:59;1.77;;;1.67;;
15443;SDS011;7822;48.146;11.576;2023-02-28T09:53:30;1.43;;;1.23;;
15443;SDS011;7822;48.146;11.576;2023-02-28T09:56:01;1.77;;;1.63;;
15443;SDS011;7822;48.146;11.576;2023-02-28T09:58:33;1.73;;;1.63;;
15443;SDS011;7822;48.146;11.576;2023-02-28T10:01:09;1.83;;;1.73;;
15443;SDS011;7822;48.146;11.576;2023-02-28T10:03:47;1.70;;;1.60;;
15443;SDS011;7822;48.146;11.576;2023-02-28T10:06:26;1.90;;;1.80;;
15443;SDS011;7822;48.146;11.576;2023-02-28T10:08:58;1.60;;;1.50;;
15443;SDS011;7822;48.146;11.576;2023-02-28T10:11:29;1.50;;;1.40;;
15443;SDS011;7822;48.146;11.576;2023-02-28T10:13:59;2.00;;;1.90;;
15443;SDS011;7822;48.146;11.576;2023-02-28T10:16:34;1.63;;;1.53;;
15443;SDS011;7822;48.146;11.576;2023-02-28T10:19:08;1.60;;;1.50;;
15443;SDS011;7822;48.146;11.576;2023-02-28T10:21:43;1.60;;;1.50;;
15443;SDS011;7822;48.146;11.576;2023-02-28T10:24:19;1.57;;;1.47;;
15443;SDS011;7822;48.146;11.576;2023-02-28T10:26:50;1.87;;;1.40;;
15443;SDS011;7822;48.146;11.576;2023-02-28T10:29:23;1.70;;;1.60;;
15443;SDS011;7822;48.146;11.576;2023-02-28T10:31:50;2.00;;;1.80;;
15443;SDS011;7822;48.146;11.576;2023-02-28T10:34:19;1.70;;;1.60;;
15443;SDS011;7822;48.146;11.576;2023-02-28T10:36:47;1.60;;;1.50;;
15443;SDS011;7822;48.146;11.576;2023-02-28T10:39:36;1.70;;;1.60;;
15443;SDS011;7822;48.146;11.576;2023-02-28T10:42:20;1.60;;;1.50;;
15443;SDS011;7822;48.146;11.576;2023-02-28T10:47:40;1.97;;;1.80;;
15443;SDS011;7822;48.146;11.576;2023-02-28T10:50:29;1.93;;;1.70;;
15443;SDS011;7822;48.146;11.576;2023-02-28T10:53:05;1.80;;;1.70;;
15443;SDS011;7822;48.146;11.576;2023-02-28T10:55:42;1.70;;;1.60;;
15443;SDS011;7822;48.146;11.576;2023-02-28T10:58:23;1.70;;;1.60;;
15443;SDS011;7822;48.146;11.576;2023-02-28T11:00:52;2.03;;;1.80;;
15443;SDS011;7822;48.146;11.576;2023-02-28T11:03:24;1.80;;;1.70;;
15443;SDS011;7822;48.146;11.576;2023-02-28T11:05:58;2.17;;;1.97;;
15443;SDS011;7822;48.146;11.576;2023-02-28T11:08:34;1.60;;;1.50;;
15443;SDS011;7822;48.146;11.576;2023-02-28T11:11:11;1.67;;;1.57;;
15443;SDS011;7822;48.146;11.576;2023-02-28T11:13:39;1.63;;;1.53;;
15443;SDS011;7822;48.146;11.576;2023-02-28T11:16:08;1.93;;;1.53;;
15443;SDS011;7822;48.146;11.576;2023-02-28T11:18:40;2.20;;;2.00;;
15443;SDS011;7822;48.146;11.576;2023-02-28T11:21:16;2.10;;;1.90;;
15443;SDS011;7822;48.146;11.576;2023-02-28T11:23:47;1.73;;;1.63;;
15443;SDS011;7822;48.146;11.576;2023-02-28T11:29:17;1.90;;;1.80;;
15443;SDS011;7822;48.146;11.576;2023-02-28T11:32:00;1.57;;;1.47;;
15443;SDS011;7822;48.146;11.576;2023-02-28T11:34:29;1.70;;;1.60;;
15443;SDS011;7822;48.146;11.576;2023-02-28T11:37:00;2.17;;;2.00;;
15443;SDS011;7822;48.146;11.576;2023-02-28T11:39:31;1.97;;;1.87;;
15443;SDS011;7822;48.146;11.576;2023-02-28T11:42:09;1.93;;;1.83;;
15443;SDS011;7822;48.146;11.576;2023-02-28T11:44:51;1.93;;;1.83;;
15443;SDS011;7822;48.146;11.576;2023-02-28T11:47:32;1.93;;;1.83;;
15443;SDS011;7822;48.146;11.576;2023-02-28T11:50:15;1.90;;;1.80;;
15443;SDS011;7822;48.146;11.576;2023-02-28T11:52:53;1.73;;;1.63;;
15443;SDS011;7822;48.146;11.576;2023-02-28T11:55:24;1.90;;;1.80;;
15443;SDS011;7822;48.146;11.576;2023-02-28T11:58:14;1.73;;;1.63;;
15443;SDS011;7822;48.146;11.576;2023-02-28T12:00:59;1.87;;;1.77;;
15443;SDS011;7822;48.146;11.576;2023-02-28T12:03:39;1.80;;;1.70;;
15443;SDS011;7822;48.146;11.576;2023-02-28T12:06:15;2.10;;;2.00;;
15443;SDS011;7822;48.146;11.576;2023-02-28T12:08:53;1.73;;;1.63;;
15443;SDS011;7822;48.146;11.576;2023-02-28T12:11:32;1.60;;;1.50;;
15443;SDS011;7822;48.146;11.576;2023-02-28T12:14:20;1.83;;;1.70;;
15443;SDS011;7822;48.146;11.576;2023-02-28T12:17:13;2.00;;;1.90;;
15443;SDS011;7822;48.146;11.576;2023-02-28T12:19:50;2.20;;;2.00;;
15443;SDS011;7822;48.146;11.576;2023-02-28T12:22:28;2.00;;;1.80;;
15443;SDS011;7822;48.146;11.576;2023-02-28T12:25:06;1.90;;;1.80;;
15443;SDS011;7822;48.146;11.576;2023-02-28T12:27:49;1.83;;;1.73;;
15443;SDS011;7822;48.146;11.576;2023-02-28T12:30:19;1.70;;;1.60;;
15443;SDS011;7822;48.146;11.576;2023-02-28T12:32:52;1.70;;;1.60;;
15443;SDS011;7822;48.146;11.576;2023-02-28T12:35:23;1.70;;;1.60;;
15443;SDS011;7822;48.146;11.576;2023-02-28T12:37:55;2.00;;;1.87;;
15443;SDS011;7822;48.146;11.576;2023-02-28T12:40:32;2.03;;;1.83;;
15443;SDS011;7822;48.146;11.576;2023-02-28T12:43:09;1.90;;;1.80;;
15443;SDS011;7822;48.146;11.576;2023-02-28T12:45:41;2.07;;;1.80;;
15443;SDS011;7822;48.146;11.576;2023-02-28T12:48:15;2.60;;;1.73;;
15443;SDS011;7822;48.146;11.576;2023-02-28T12:50:47;1.83;;;1.70;;
15443;SDS011;7822;48.146;11.576;2023-02-28T12:53:18;1.83;;;1.73;;
15443;SDS011;7822;48.146;11.576;2023-02-28T12:55:59;1.87;;;1.77;;
15443;SDS011;7822;48.146;11.576;2023-02-28T12:58:36;1.97;;;1.87;;
15443;SDS011;7822;48.146;11.576;2023-02-28T13:01:21;2.20;;;2.07;;
15443;SDS011;7822;48.146;11.576;2023-02-28T13:04:27;2.10;;;2.00;;
15443;SDS011;7822;48.146;11.576;2023-02-28T13:07:12;2.43;;;2.23;;
15443;SDS011;7822;48.146;11.576;2023-02-28T13:09:56;1.80;;;1.70;;
15443;SDS011;7822;48.146;11.576;2023-02-28T13:12:27;2.00;;;1.90;;
15443;SDS011;7822;48.146;11.576;2023-02-28T13:15:01;1.70;;;1.60;;
15443;SDS011;7822;48.146;11.576;2023-02-28T13:17:32;1.90;;;1.80;;
15443;SDS011;7822;48.146;11.576;2023-02-28T13:20:00;2.10;;;1.93;;
15443;SDS011;7822;48.146;11.576;2023-02-28T13:22:38;1.80;;;1.70;;
15443;SDS011;7822;48.146;11.576;2023-02-28T13:34:37;2.10;;;1.87;;
15443;SDS011;7822;48.146;11.576;2023-02-28T13:40:14;2.17;;;2.07;;
15443;SDS011;7822;48.146;11.576;2023-02-28T13:42:55;1.80;;;1.70;;
15443;SDS011;7822;48.146;11.576;2023-02-28T13:45:24;1.83;;;1.73;;
15443;SDS011;7822;48.146;11.576;2023-02-28T13:47:58;2.10;;;1.90;;
15443;SDS011;7822;48.146;11.576;2023-02-28T13:50:31;1.93;;;1.83;;
15443;SDS011;7822;48.146;11.576;2023-02-28T13:53:06;1.73;;;1.63;;
15443;SDS011;7822;48.146;11.576;2023-02-28T13:56:01;1.67;;;1.57;;
15443;SDS011;7822;48.146;11.576;2023-02-28T13:58:38;2.07;;;1.97;;
15443;SDS011;7822;48.146;11.576;2023-02-28T14:01:16;2.50;;;2.23;;
15443;SDS011;7822;48.146;11.576;2023-02-28T14:04:03;1.63;;;1.53;;
15443;SDS011;7822;48.146;11.576;2023-02-28T14:06:48;1.90;;;1.77;;
15443;SDS011;7822;48.146;11.576;2023-02-28T14:09:19;2.30;;;2.10;;
15443;SDS011;7822;48.146;11.576;2023-02-28T14:11:50;1.80;;;1.70;;
15443;SDS011;7822;48.146;11.576;2023-02-28T14:17:21;1.90;;;1.80;;
15443;SDS011;7822;48.146;11.576;2023-02-28T14:19:50;1.90;;;1.80;;
15443;SDS011;7822;48.146;11.576;2023-02-28T14:22:32;1.87;;;1.77;;
15443;SDS011;7822;48.146;11.576;2023-02-28T14:25:16;2.17;;;2.07;;
15443;SDS011;7822;48.146;11.576;2023-02-28T14:27:55;2.13;;;2.00;;
15443;SDS011;7822;48.146;11.576;2023-02-28T14:33:46;2.23;;;2.13;;
15443;SDS011;7822;48.146;11.576;2023-02-28T14:36:26;2.10;;;2.00;;
15443;SDS011;7822;48.146;11.576;2023-02-28T14:39:00;2.10;;;1.90;;
15443;SDS011;7822;48.146;11.576;2023-02-28T14:41:34;2.23;;;2.10;;
15443;SDS011;7822;48.146;11.576;2023-02-28T14:44:13;2.30;;;2.10;;
15443;SDS011;7822;48.146;11.576;2023-02-28T14:46:42;1.90;;;1.80;;
15443;SDS011;7822;48.146;11.576;2023-02-28T14:49:13;1.90;;;1.80;;
15443;SDS011;7822;48.146;11.576;2023-02-28T14:51:45;2.10;;;2.00;;
15443;SDS011;7822;48.146;11.576;2023-02-28T14:54:15;2.10;;;2.00;;
15443;SDS011;7822;48.146;11.576;2023-02-28T14:56:48;2.10;;;2.00;;
15443;SDS011;7822;48.146;11.576;2023-02-28T14:59:22;2.23;;;2.07;;
15443;SDS011;7822;48.146;11.576;2023-02-28T15:01:52;2.17;;;1.97;;
15443;SDS011;7822;48.146;11.576;2023-02-28T15:04:34;2.00;;;1.90;;
15443;SDS011;7822;48.146;11.576;2023-02-28T15:07:08;1.67;;;1.57;;
15443;SDS011;7822;48.146;11.576;2023-02-28T15:09:38;1.97;;;1.87;;
15443;SDS011;7822;48.146;11.576;2023-02-28T15:12:06;2.40;;;2.20;;
15443;SDS011;7822;48.146;11.576;2023-02-28T15:14:34;1.93;;;1.83;;
15443;SDS011;7822;48.146;11.576;2023-02-28T15:17:06;1.93;;;1.77;;
15443;SDS011;7822;48.146;11.576;2023-02-28T15:19:39;2.53;;;2.33;;
15443;SDS011;7822;48.146;11.576;2023-02-28T15:22:12;2.00;;;1.90;;
15443;SDS011;7822;48.146;11.576;2023-02-28T15:24:46;2.00;;;1.80;;
15443;SDS011;7822;48.146;11.576;2023-02-28T15:27:19;2.07;;;1.97;;
15443;SDS011;7822;48.146;11.576;2023-02-28T15:29:49;2.07;;;1.90;;
15443;SDS011;7822;48.146;11.576;2023-02-28T15:32:29;2.20;;;2.00;;
15443;SDS011;7822;48.146;11.576;2023-02-28T15:34:58;1.87;;;1.77;;
15443;SDS011;7822;48.146;11.576;2023-02-28T15:37:45;1.97;;;1.87;;
15443;SDS011;7822;48.146;11.576;2023-02-28T15:40:18;2.00;;;1.90;;
15443;SDS011;7822;48.146;11.576;2023-02-28T15:42:57;2.03;;;1.90;;